EWG4TW EDDK-LEIB
Flight info
| Callsign | EWG4TW |
|---|---|
| Flight time | N/A |
| Altitude | 37000 |
| Route | NVO Y868 NAVAK Z283 SOPOK DCT ROUSY DCT GTQ DCT POGOL DCT LASAT DCT MOROK DCT GILIR DCT GEVEA DCT INCUS DCT BALSI DCT RETNO DCT TUPOX DCT MTG DCT DIVKO DCT VATIR/N0418F310 DCT PIVUS DCT SULID DCT DIMIB DCT POS |
| Aircraft | A320/M-SDE2E3FGIJ1RWXY/L |
Departure
| Time | 2026-05-01 10:59 |
|---|---|
| Airport | Cologne Bonn Airport (EDDK) |
Arrival
| Time | N/A |
|---|---|
| Airport | Ibiza Airport (LEIB) |
| Time | Latitude | Longitude | Altitude | Speed | Heading |
|---|---|---|---|---|---|
| 2026-05-01 10:35 | 50.87803 | 7.12419 | 232 ft | 0 kts | 288° |
| 2026-05-01 10:50 | 50.87798 | 7.12446 | 232 ft | 4 kts | 288° |
| 2026-05-01 10:50 | 50.87789 | 7.12486 | 232 ft | 3 kts | 288° |
| 2026-05-01 10:51 | 50.87782 | 7.12518 | 232 ft | 4 kts | 307° |
| 2026-05-01 10:51 | 50.87763 | 7.12541 | 232 ft | 4 kts | 354° |
| 2026-05-01 10:51 | 50.87739 | 7.12535 | 234 ft | 4 kts | 18° |
| 2026-05-01 10:51 | 50.87714 | 7.12523 | 232 ft | 2 kts | 18° |
| 2026-05-01 10:52 | 50.87712 | 7.12522 | 232 ft | 0 kts | 18° |
| 2026-05-01 10:54 | 50.87714 | 7.12523 | 232 ft | 1 kts | 18° |
| 2026-05-01 10:54 | 50.87734 | 7.12533 | 232 ft | 3 kts | 18° |
| 2026-05-01 10:54 | 50.87753 | 7.12543 | 232 ft | 3 kts | 18° |
| 2026-05-01 10:55 | 50.87786 | 7.12560 | 232 ft | 6 kts | 18° |
| 2026-05-01 10:55 | 50.87820 | 7.12578 | 234 ft | 5 kts | 18° |
| 2026-05-01 10:55 | 50.87851 | 7.12594 | 232 ft | 6 kts | 18° |
| 2026-05-01 10:55 | 50.87887 | 7.12612 | 232 ft | 5 kts | 17° |
| 2026-05-01 10:56 | 50.87929 | 7.12639 | 233 ft | 8 kts | 28° |
| 2026-05-01 10:56 | 50.87976 | 7.12705 | 234 ft | 9 kts | 50° |
| 2026-05-01 10:56 | 50.88001 | 7.12782 | 237 ft | 8 kts | 72° |
| 2026-05-01 10:56 | 50.88008 | 7.12880 | 239 ft | 10 kts | 91° |
| 2026-05-01 10:57 | 50.87990 | 7.12985 | 239 ft | 9 kts | 120° |
| 2026-05-01 10:57 | 50.87956 | 7.13041 | 239 ft | 0 kts | 137° |
| 2026-05-01 10:58 | 50.87823 | 7.13234 | 239 ft | 60 kts | 137° |
| 2026-05-01 10:58 | 50.87354 | 7.13913 | 242 ft | 119 kts | 137° |
| 2026-05-01 10:58 | 50.86632 | 7.14957 | 332 ft | 156 kts | 139° |
| 2026-05-01 10:59 | 50.85837 | 7.16109 | 1003 ft | 156 kts | 139° |
| 2026-05-01 10:59 | 50.85021 | 7.17271 | 1803 ft | 161 kts | 139° |
| 2026-05-01 10:59 | 50.84128 | 7.18526 | 2248 ft | 182 kts | 138° |
| 2026-05-01 10:59 | 50.83113 | 7.19940 | 2637 ft | 205 kts | 138° |
| 2026-05-01 11:00 | 50.82038 | 7.21441 | 3422 ft | 210 kts | 139° |
| 2026-05-01 11:00 | 50.80955 | 7.22951 | 4398 ft | 207 kts | 139° |
| 2026-05-01 11:00 | 50.79751 | 7.24224 | 5217 ft | 213 kts | 164° |
| 2026-05-01 11:00 | 50.78251 | 7.24345 | 5986 ft | 219 kts | 181° |
| 2026-05-01 11:01 | 50.76778 | 7.23612 | 6749 ft | 231 kts | 211° |
| 2026-05-01 11:01 | 50.75720 | 7.21631 | 7441 ft | 246 kts | 241° |
| 2026-05-01 11:01 | 50.75201 | 7.19001 | 8155 ft | 257 kts | 258° |
| 2026-05-01 11:01 | 50.75180 | 7.16110 | 8736 ft | 276 kts | 276° |
| 2026-05-01 11:02 | 50.75586 | 7.13016 | 9192 ft | 295 kts | 280° |
| 2026-05-01 11:02 | 50.76031 | 7.09849 | 9922 ft | 302 kts | 280° |
| 2026-05-01 11:02 | 50.76491 | 7.06571 | 10611 ft | 310 kts | 280° |
| 2026-05-01 11:02 | 50.76965 | 7.03114 | 10891 ft | 334 kts | 280° |
| 2026-05-01 11:03 | 50.77467 | 6.99423 | 11340 ft | 348 kts | 280° |
| 2026-05-01 11:03 | 50.77980 | 6.95642 | 11988 ft | 355 kts | 280° |
| 2026-05-01 11:03 | 50.78501 | 6.91791 | 12697 ft | 359 kts | 280° |
| 2026-05-01 11:03 | 50.79016 | 6.87961 | 13411 ft | 362 kts | 281° |
| 2026-05-01 11:04 | 50.79548 | 6.84024 | 14091 ft | 368 kts | 281° |
| 2026-05-01 11:04 | 50.80084 | 6.80059 | 14749 ft | 371 kts | 280° |
| 2026-05-01 11:04 | 50.80624 | 6.76048 | 15400 ft | 373 kts | 281° |
| 2026-05-01 11:04 | 50.81165 | 6.71998 | 16018 ft | 377 kts | 280° |
| 2026-05-01 11:05 | 50.81705 | 6.67929 | 16678 ft | 380 kts | 280° |
| 2026-05-01 11:05 | 50.82201 | 6.63806 | 17280 ft | 383 kts | 275° |
| 2026-05-01 11:05 | 50.82334 | 6.59581 | 17876 ft | 384 kts | 269° |
| 2026-05-01 11:05 | 50.82382 | 6.55387 | 18502 ft | 387 kts | 269° |
| 2026-05-01 11:06 | 50.82431 | 6.51128 | 19079 ft | 388 kts | 269° |
| 2026-05-01 11:06 | 50.82481 | 6.46842 | 19595 ft | 392 kts | 269° |
| 2026-05-01 11:06 | 50.82531 | 6.42515 | 20108 ft | 395 kts | 269° |
| 2026-05-01 11:07 | 50.82638 | 6.33734 | 21138 ft | 401 kts | 270° |
| 2026-05-01 11:07 | 50.82689 | 6.29307 | 21670 ft | 403 kts | 270° |
| 2026-05-01 11:07 | 50.82736 | 6.24878 | 22219 ft | 404 kts | 270° |
| 2026-05-01 11:07 | 50.82780 | 6.20398 | 22696 ft | 407 kts | 271° |
| 2026-05-01 11:08 | 50.82821 | 6.15892 | 23123 ft | 412 kts | 271° |
| 2026-05-01 11:08 | 50.82861 | 6.11357 | 23651 ft | 413 kts | 271° |
| 2026-05-01 11:08 | 50.82937 | 6.02265 | 24485 ft | 418 kts | 270° |
| 2026-05-01 11:09 | 50.82688 | 5.97680 | 24842 ft | 420 kts | 256° |
| 2026-05-01 11:09 | 50.81620 | 5.93375 | 25150 ft | 422 kts | 238° |
| 2026-05-01 11:09 | 50.79784 | 5.89768 | 25554 ft | 421 kts | 220° |
| 2026-05-01 11:10 | 50.74739 | 5.85174 | 26289 ft | 422 kts | 206° |
| 2026-05-01 11:10 | 50.72160 | 5.83006 | 26660 ft | 425 kts | 207° |
| 2026-05-01 11:10 | 50.69579 | 5.80718 | 27055 ft | 426 kts | 208° |
| 2026-05-01 11:10 | 50.66992 | 5.78386 | 27415 ft | 429 kts | 208° |
| 2026-05-01 11:11 | 50.64389 | 5.76053 | 27794 ft | 430 kts | 208° |
| 2026-05-01 11:11 | 50.61711 | 5.73919 | 28163 ft | 431 kts | 200° |
| 2026-05-01 11:11 | 50.58843 | 5.72523 | 28513 ft | 431 kts | 190° |
| 2026-05-01 11:11 | 50.55903 | 5.71930 | 28842 ft | 432 kts | 181° |
| 2026-05-01 11:12 | 50.52892 | 5.72109 | 29178 ft | 432 kts | 172° |
| 2026-05-01 11:12 | 50.49895 | 5.72704 | 29499 ft | 435 kts | 172° |
| 2026-05-01 11:12 | 50.46886 | 5.73287 | 29873 ft | 436 kts | 172° |
| 2026-05-01 11:12 | 50.43872 | 5.73858 | 30228 ft | 437 kts | 172° |
| 2026-05-01 11:13 | 50.40841 | 5.74429 | 30530 ft | 439 kts | 172° |
| 2026-05-01 11:13 | 50.37839 | 5.74998 | 30800 ft | 440 kts | 172° |
| 2026-05-01 11:13 | 50.34753 | 5.75583 | 31062 ft | 442 kts | 172° |
| 2026-05-01 11:13 | 50.31731 | 5.76156 | 31310 ft | 443 kts | 172° |
| 2026-05-01 11:14 | 50.28656 | 5.76734 | 31553 ft | 445 kts | 172° |
| 2026-05-01 11:14 | 50.25590 | 5.77381 | 31956 ft | 442 kts | 168° |
| 2026-05-01 11:14 | 50.22607 | 5.78561 | 32387 ft | 438 kts | 163° |
| 2026-05-01 11:14 | 50.19719 | 5.79867 | 32828 ft | 436 kts | 163° |
| 2026-05-01 11:15 | 50.16804 | 5.81177 | 33186 ft | 434 kts | 163° |
| 2026-05-01 11:15 | 50.13888 | 5.82477 | 33480 ft | 435 kts | 164° |
| 2026-05-01 11:15 | 50.10977 | 5.83766 | 33866 ft | 433 kts | 164° |
| 2026-05-01 11:15 | 50.08075 | 5.85047 | 34180 ft | 433 kts | 164° |
| 2026-05-01 11:16 | 50.05210 | 5.86312 | 34485 ft | 433 kts | 164° |
| 2026-05-01 11:16 | 50.02299 | 5.87600 | 34783 ft | 432 kts | 164° |
| 2026-05-01 11:16 | 49.99415 | 5.88876 | 35186 ft | 428 kts | 164° |
| 2026-05-01 11:16 | 49.96542 | 5.90147 | 35428 ft | 428 kts | 164° |
| 2026-05-01 11:17 | 49.93675 | 5.91415 | 35728 ft | 427 kts | 164° |
| 2026-05-01 11:17 | 49.90858 | 5.92655 | 35984 ft | 427 kts | 164° |
| 2026-05-01 11:17 | 49.87986 | 5.93914 | 36132 ft | 429 kts | 164° |
| 2026-05-01 11:17 | 49.85097 | 5.95180 | 36280 ft | 431 kts | 164° |
| 2026-05-01 11:18 | 49.83189 | 5.96016 | 36430 ft | 431 kts | 165° |
| 2026-05-01 11:18 | 49.80298 | 5.97285 | 36623 ft | 431 kts | 164° |
| 2026-05-01 11:18 | 49.77412 | 5.98555 | 36826 ft | 432 kts | 164° |
| 2026-05-01 11:18 | 49.73589 | 6.00230 | 37140 ft | 430 kts | 165° |
| 2026-05-01 11:19 | 49.70699 | 6.01489 | 37296 ft | 430 kts | 165° |
| 2026-05-01 11:19 | 49.68787 | 6.02323 | 37330 ft | 429 kts | 165° |
| 2026-05-01 11:19 | 49.63046 | 6.04821 | 37328 ft | 427 kts | 165° |
| 2026-05-01 11:20 | 49.57353 | 6.07295 | 37329 ft | 427 kts | 164° |
| 2026-05-01 11:20 | 49.51661 | 6.09758 | 37320 ft | 425 kts | 164° |
| 2026-05-01 11:21 | 49.46250 | 6.13406 | 37325 ft | 426 kts | 146° |
| 2026-05-01 11:21 | 49.41579 | 6.19033 | 37313 ft | 427 kts | 141° |
| 2026-05-01 11:22 | 49.36976 | 6.24728 | 37318 ft | 427 kts | 142° |
| 2026-05-01 11:22 | 49.32339 | 6.30446 | 37312 ft | 427 kts | 142° |
| 2026-05-01 11:23 | 49.27704 | 6.36154 | 37306 ft | 427 kts | 141° |
| 2026-05-01 11:23 | 49.23059 | 6.41863 | 37312 ft | 428 kts | 142° |
| 2026-05-01 11:24 | 49.18442 | 6.47517 | 37307 ft | 427 kts | 142° |
| 2026-05-01 11:25 | 49.11473 | 6.56034 | 37299 ft | 428 kts | 142° |
| 2026-05-01 11:25 | 49.04499 | 6.64520 | 37311 ft | 427 kts | 142° |
| 2026-05-01 11:26 | 48.96651 | 6.70732 | 37293 ft | 428 kts | 168° |
| 2026-05-01 11:27 | 48.90771 | 6.71308 | 37296 ft | 428 kts | 181° |
| 2026-05-01 11:27 | 48.84835 | 6.71077 | 37290 ft | 428 kts | 181° |